Huvudsida
METAR-TAF:

METAR-TAF

Flygplatser :

Mehrabads flygplats

Teheran, Iran

latitud: 35-41N, longitud: 051-21E, höjd: 1204 m

Aktuellt väderrapport

Denna rapport gjordes för 21 minuter sedan, klockan 20:30 UTC
Vind 4 kt från nordväst
Temperatur 8°C
Fuktighet 76%
Tryck 1024 hPa
Sikt 10 km eller mer
Spridda moln på en höjd av 10000 ft

METAR: OIII 162030Z 32004KT 9999 SCT100 08/04 Q1023 A3023

Tid: 00:21 (20:51 UTC)

Väderprognos

Denna rapport gjordes för 3 timmar och 21 minuter sedan, klockan 17:30 UTC
Prognos gäller från 16 kl. 18 UTC till 17 kl. 24 UTC
Vind 8 kt från nordväst
Sikt: 7000 m
Blir
från 16 kl. 23 UTC till 17 kl. 01 UTC
Sikt: 4000 m
fuktdis
Blir
från 17 kl. 04 UTC till 17 kl. 06 UTC
Sikt: 7000 m
Temporärt
från 17 kl. 10 UTC till 17 kl. 14 UTC
Vind 14 kt från nordväst

TAF: OIII 161730Z 1618/1724 31004MPS 7000 NSC BECMG 1623/1701 4000 BR BECMG 1704/1706 7000 NSC TEMPO 1710/1714 31007MPS

Aktuella väderrapporter och prognoser från 4000 flygplatser (METAR- och TAF-rapporter).

De tillgängliga stationerna syns som gula och röda prickar på kartan.

För musen över prickarna för att se namnen på stationerna.

Klicka sedan för att få väderrapporter och prognoser.

För att ändra kartan: Klicka på de gröna knapparna med ett svart kors på för att zooma in; den gröna knappen med ett streck på för att zooma ut; eller på de gröna pilarna för angränsande kartor.


METAR-TAF: